首页
METAR-TAF:

METAR-TAF

机场 :

Cherry Point, 北卡罗来纳州, 美国

纬度: 34-53-52N, 经度: 076-52-51W, 海拔: 8米

当前天气观测

该预报发布于26分钟前的19:54 UTC
风速18节,风向东北,有时为26节阵风
温度 11°C
湿度 50%
气压 1028 hPa
能見度: 16.1公里
阴天层高于11000英尺

METAR: KNKT 141954Z 04018G26KT 10SM OVC110 11/01 A3037 RMK AO2 PK WND 03027/1855 SLP279 T01060006

时间: 15:20 (20:20 UTC)

预报

预报有效从14日的 17点(UTC)到 15日的 15点(UTC)
风速13节,风向东北
能见度10公里或以上
少量云层高于2000英尺
多云层高于4200英尺
阴天层高于12000英尺
短暂存在
从 14日的 17点(UTC)到 14日的 18点(UTC)
风速18节,风向东北,有时为25节阵风
从 14日的 2100点(UTC)
风速15节,风向东北
能见度10公里或以上
散云层高于1500英尺
多云层高于3500英尺
阴天层高于8000英尺
附近有阵雨
短暂存在
从 14日的 21点(UTC)到 15日的 03点(UTC)
风速17节,风向东北,有时为26节阵风
多云层高于2000英尺
多云层高于3000英尺
成为
从 15日的 03点(UTC)到 15日的 05点(UTC)
风速14节,风向东转东北,有时为24节阵风
能見度: 1709
多云层高于1500英尺
阴天层高于3000英尺

TAF: KNKT 1417/1515 04013KT 9999 FEW020 BKN042 OVC120 QNH3029INS TEMPO 1417/1418 05018G25KT FM142100 04015KT 9999 VCSH SCT015 BKN035 OVC080 QNH3030INS TEMPO 1421/1503 05017G26KT BKN020 BKN030 BECMG 1503/1505 07014G24KT BKN015 OVC030 QNH2993INS T07/1422Z T16/1514Z AMD 1709

超过4000个机场的气象观测和天气预报(METAR&TAF报告)。

可查询的气象台以黄色和红色小点在地图上表示。

将鼠标移到小点上方,可查看气象台名称。

然后点击查看天气观测和预报。

如需切换地图:点击带黑十字的绿色按钮放大地图;点击带横线的绿色按钮缩小地图;或者点击绿色箭头查看邻近地区的地图。


METAR-TAF: